createdAt,value
2023-04-29T00:00:45.518Z,55.37
2023-04-29T00:03:49.833Z,52.53
2023-04-29T00:06:53.684Z,51.83
2023-04-29T00:09:58.860Z,52.50
2023-04-29T00:13:02.582Z,51.50
2023-04-29T00:16:07.551Z,50.30
2023-04-29T00:19:11.422Z,51.63
2023-04-29T00:22:15.081Z,48.20
2023-04-29T00:25:20.631Z,48.37
2023-04-29T00:28:24.306Z,47.43
2023-04-29T00:31:28.353Z,44.83
2023-04-29T00:34:32.043Z,46.30
2023-04-29T00:37:36.267Z,43.23
2023-04-29T00:40:41.376Z,44.27
2023-04-29T00:43:45.000Z,41.30
2023-04-29T00:46:48.641Z,42.23
2023-04-29T00:49:52.527Z,41.47
2023-04-29T00:52:56.510Z,40.10
2023-04-29T00:56:03.644Z,41.57
2023-04-29T00:59:09.463Z,38.80
2023-04-29T01:02:13.308Z,40.07
2023-04-29T01:05:18.096Z,37.43
2023-04-29T01:08:34.795Z,37.60
2023-04-29T01:12:08.253Z,39.43
2023-04-29T01:15:22.441Z,37.90
2023-04-29T01:18:35.724Z,37.80
2023-04-29T01:21:49.289Z,40.07
2023-04-29T01:24:55.076Z,36.17
2023-04-29T01:28:15.549Z,38.40
2023-04-29T01:31:26.926Z,35.73
2023-04-29T01:34:43.438Z,37.97
2023-04-29T01:37:56.310Z,34.10
2023-04-29T01:41:15.256Z,34.63
2023-04-29T01:44:25.624Z,33.53
2023-04-29T01:47:31.508Z,33.07
2023-04-29T01:50:35.296Z,33.70
2023-04-29T01:53:40.515Z,33.00
2023-04-29T01:56:46.079Z,32.23
2023-04-29T01:59:49.718Z,32.07
2023-04-29T02:02:54.947Z,33.23
2023-04-29T02:05:59.339Z,31.13
2023-04-29T02:09:02.994Z,29.83
2023-04-29T02:12:08.166Z,31.43
2023-04-29T02:15:12.535Z,30.97
2023-04-29T02:18:16.203Z,30.70
2023-04-29T02:21:19.939Z,31.03
2023-04-29T02:24:23.612Z,30.33
2023-04-29T02:27:28.865Z,28.70
2023-04-29T02:30:32.704Z,31.00
2023-04-29T02:33:36.243Z,30.43
2023-04-29T02:36:39.922Z,29.50
2023-04-29T02:39:43.507Z,29.67
2023-04-29T02:42:49.542Z,30.67
2023-04-29T02:45:53.692Z,30.13
2023-04-29T02:48:57.515Z,28.20
2023-04-29T02:52:01.150Z,27.23
2023-04-29T02:55:05.365Z,28.30
2023-04-29T02:58:10.375Z,28.97
2023-04-29T03:01:14.195Z,28.30
2023-04-29T03:04:18.027Z,27.77
2023-04-29T03:07:21.785Z,27.33
2023-04-29T03:10:25.488Z,26.17
2023-04-29T03:13:30.690Z,27.30
2023-04-29T03:16:34.754Z,28.70
2023-04-29T03:19:39.172Z,27.90
2023-04-29T03:22:42.876Z,27.30
2023-04-29T03:25:46.593Z,28.83
2023-04-29T03:28:51.701Z,27.50
2023-04-29T03:31:56.960Z,27.90
2023-04-29T03:35:00.537Z,26.57
2023-04-29T03:38:04.203Z,26.57
2023-04-29T03:41:07.991Z,25.17
2023-04-29T03:44:13.410Z,25.07
2023-04-29T03:47:16.954Z,26.07
2023-04-29T03:50:20.552Z,24.43
2023-04-29T03:53:24.657Z,26.50
2023-04-29T03:56:28.686Z,25.97
2023-04-29T03:59:33.782Z,25.17
2023-04-29T04:02:37.602Z,25.73
2023-04-29T04:05:41.398Z,25.40
2023-04-29T04:08:45.168Z,26.13
2023-04-29T04:11:48.778Z,24.40
2023-04-29T04:14:54.131Z,25.53
2023-04-29T04:17:57.770Z,26.80
2023-04-29T04:21:07.835Z,25.87
2023-04-29T04:24:11.409Z,27.53
2023-04-29T04:27:15.047Z,27.10
2023-04-29T04:30:20.210Z,28.20
2023-04-29T04:33:23.896Z,28.93
2023-04-29T04:36:27.457Z,26.63
2023-04-29T04:39:31.163Z,27.43
2023-04-29T04:42:34.969Z,27.93
2023-04-29T04:45:39.917Z,26.07
2023-04-29T04:48:44.361Z,27.87
2023-04-29T04:51:48.126Z,26.67
2023-04-29T04:54:51.792Z,29.97
2023-04-29T04:57:55.395Z,28.70
2023-04-29T05:01:00.574Z,28.57
2023-04-29T05:04:04.446Z,28.73
2023-04-29T05:07:08.247Z,29.73
2023-04-29T05:10:12.532Z,28.03
2023-04-29T05:13:16.321Z,29.50
2023-04-29T05:16:21.277Z,29.30
2023-04-29T05:19:25.220Z,30.83
2023-04-29T05:22:28.808Z,30.30
2023-04-29T05:25:32.472Z,31.87
2023-04-29T05:28:36.541Z,30.83
2023-04-29T05:31:41.584Z,31.87
2023-04-29T05:34:45.391Z,31.27
2023-04-29T05:37:49.134Z,30.20
2023-04-29T05:40:53.242Z,30.80
2023-04-29T05:43:56.975Z,30.67
2023-04-29T05:47:02.210Z,29.83
2023-04-29T05:50:07.184Z,31.07
2023-04-29T05:53:11.255Z,29.70
2023-04-29T05:56:14.915Z,29.73
2023-04-29T05:59:18.510Z,31.07
2023-04-29T06:02:23.699Z,28.43
2023-04-29T06:05:28.537Z,29.00
2023-04-29T06:08:32.776Z,26.63
2023-04-29T06:11:36.358Z,27.40
2023-04-29T06:14:40.152Z,27.27
2023-04-29T06:17:45.127Z,24.93
2023-04-29T06:20:48.897Z,25.93
2023-04-29T06:23:53.179Z,24.87
2023-04-29T06:26:56.867Z,26.77
2023-04-29T06:30:00.703Z,23.90
2023-04-29T06:33:06.069Z,24.13
2023-04-29T06:36:09.990Z,24.90
2023-04-29T06:39:13.640Z,24.47
2023-04-29T06:42:17.204Z,24.03
2023-04-29T06:45:21.050Z,23.93
2023-04-29T06:48:27.629Z,24.30
2023-04-29T06:51:32.272Z,23.27
2023-04-29T06:54:35.888Z,23.83
2023-04-29T06:57:39.591Z,22.80
2023-04-29T07:00:47.344Z,22.33
2023-04-29T07:03:52.819Z,21.43
2023-04-29T07:06:59.159Z,22.90
2023-04-29T07:10:02.801Z,20.37
2023-04-29T07:13:06.861Z,20.60
2023-04-29T07:16:18.271Z,20.90
2023-04-29T07:19:23.535Z,19.30
2023-04-29T07:22:27.413Z,19.67
2023-04-29T07:25:31.094Z,19.37
2023-04-29T07:28:34.927Z,16.77
2023-04-29T07:31:38.706Z,16.03
2023-04-29T07:34:44.148Z,16.47
2023-04-29T07:37:48.379Z,15.30
2023-04-29T07:40:51.973Z,15.40
2023-04-29T07:43:55.655Z,14.53
2023-04-29T07:46:59.393Z,13.40
2023-04-29T07:50:05.442Z,12.97
2023-04-29T07:53:09.134Z,10.60
2023-04-29T07:56:12.860Z,11.33
2023-04-29T07:59:16.736Z,10.97
2023-04-29T08:02:20.668Z,10.73
2023-04-29T08:05:26.752Z,9.97
2023-04-29T08:08:32.157Z,9.97
2023-04-29T08:11:36.128Z,10.60
2023-04-29T08:14:39.961Z,10.17
2023-04-29T08:17:43.964Z,8.53
2023-04-29T08:20:51.407Z,8.77
2023-04-29T08:23:55.902Z,8.87
2023-04-29T08:27:00.098Z,8.53
2023-04-29T08:30:04.044Z,8.73
2023-04-29T08:33:07.971Z,7.73
2023-04-29T08:36:13.142Z,8.00
2023-04-29T08:39:16.889Z,7.97
2023-04-29T08:42:34.378Z,7.73
2023-04-29T08:45:39.810Z,8.07
2023-04-29T08:48:45.557Z,7.60
2023-04-29T08:51:52.715Z,7.43
2023-04-29T08:54:57.977Z,7.57
2023-04-29T08:58:04.073Z,6.93
2023-04-29T09:01:10.039Z,7.47
2023-04-29T09:04:30.774Z,7.27
2023-04-29T09:07:37.865Z,7.70
2023-04-29T09:10:44.146Z,7.73
2023-04-29T09:13:47.810Z,7.37
2023-04-29T09:16:51.656Z,7.83
2023-04-29T09:19:57.180Z,7.80
2023-04-29T09:23:05.320Z,6.27
2023-04-29T09:26:08.901Z,7.33
2023-04-29T09:29:16.390Z,6.63
2023-04-29T09:32:22.928Z,8.00
2023-04-29T09:35:28.788Z,6.90
2023-04-29T09:38:33.788Z,7.30
2023-04-29T09:41:37.718Z,7.07
2023-04-29T09:44:43.811Z,6.67
2023-04-29T09:47:47.522Z,8.43
2023-04-29T09:51:03.103Z,7.90
2023-04-29T09:54:23.159Z,7.87
2023-04-29T09:57:45.247Z,7.80
2023-04-29T10:00:48.973Z,7.60
2023-04-29T10:03:57.874Z,6.80
2023-04-29T10:07:03.716Z,7.90
2023-04-29T10:10:11.831Z,7.30
2023-04-29T10:13:15.501Z,7.50
2023-04-29T10:16:30.524Z,7.00
2023-04-29T10:19:41.016Z,6.83
2023-04-29T10:22:49.665Z,7.07
2023-04-29T10:25:56.919Z,6.60
2023-04-29T10:29:02.264Z,6.87
2023-04-29T10:32:10.932Z,7.30
2023-04-29T10:35:19.140Z,5.93
2023-04-29T10:38:30.924Z,6.50
2023-04-29T10:41:47.015Z,6.57
2023-04-29T10:45:22.179Z,6.97
2023-04-29T10:48:26.650Z,6.20
2023-04-29T10:51:33.268Z,6.83
2023-04-29T10:54:36.966Z,6.20
2023-04-29T10:57:43.002Z,6.67
2023-04-29T11:00:46.721Z,6.87
2023-04-29T11:03:58.729Z,6.40
2023-04-29T11:07:03.202Z,6.33
2023-04-29T11:10:08.675Z,4.93
2023-04-29T11:13:27.079Z,4.27
2023-04-29T11:16:30.900Z,5.50
2023-04-29T11:19:36.873Z,6.37
2023-04-29T11:22:40.866Z,5.20
2023-04-29T11:25:44.688Z,4.90
2023-04-29T11:28:52.350Z,5.20
2023-04-29T11:32:01.127Z,4.70
2023-04-29T11:35:15.755Z,5.33
2023-04-29T11:38:19.528Z,5.03
2023-04-29T11:41:24.222Z,4.77
2023-04-29T11:44:29.476Z,4.33
2023-04-29T11:47:33.082Z,5.20
2023-04-29T11:50:36.792Z,5.03
2023-04-29T11:53:40.584Z,4.70
2023-04-29T11:56:44.399Z,4.50
2023-04-29T11:59:49.826Z,4.23
2023-04-29T12:02:53.647Z,3.63
2023-04-29T12:05:58.693Z,4.33
2023-04-29T12:09:04.528Z,3.93
2023-04-29T12:12:08.302Z,4.00
2023-04-29T12:15:14.836Z,4.13
2023-04-29T12:18:20.044Z,3.53
2023-04-29T12:21:24.074Z,3.90
2023-04-29T12:24:27.785Z,4.57
2023-04-29T12:27:31.809Z,3.93
2023-04-29T12:30:38.905Z,4.30
2023-04-29T12:33:45.551Z,4.37
2023-04-29T12:36:49.312Z,4.33
2023-04-29T12:39:52.940Z,5.07
2023-04-29T12:42:56.669Z,4.10
2023-04-29T12:46:05.807Z,4.30
2023-04-29T12:49:09.723Z,4.63
2023-04-29T12:52:13.969Z,4.00
2023-04-29T12:55:17.750Z,4.43
2023-04-29T12:58:21.504Z,3.93
2023-04-29T13:01:26.624Z,4.77
2023-04-29T13:04:30.525Z,4.23
2023-04-29T13:07:34.413Z,4.10
2023-04-29T13:10:38.097Z,4.07
2023-04-29T13:13:41.885Z,3.43
2023-04-29T13:16:47.579Z,3.47
2023-04-29T13:19:52.262Z,2.77
2023-04-29T13:22:57.997Z,2.80
2023-04-29T13:26:01.778Z,2.70
2023-04-29T13:29:05.610Z,3.17
2023-04-29T13:32:10.703Z,1.90
2023-04-29T13:35:14.274Z,2.03
2023-04-29T13:38:18.825Z,2.07
2023-04-29T13:41:22.825Z,1.80
2023-04-29T13:44:34.090Z,2.10
2023-04-29T14:00:47.299Z,1.73
2023-04-29T14:03:46.126Z,1.37
2023-04-29T14:06:49.815Z,2.30
2023-04-29T14:09:53.387Z,1.27
2023-04-29T14:12:56.966Z,0.90
2023-04-29T14:16:03.731Z,1.30
2023-04-29T14:19:09.061Z,1.83
2023-04-29T14:22:12.732Z,1.40
2023-04-29T14:25:16.577Z,1.38
2023-04-29T14:28:20.250Z,1.13
2023-04-29T14:31:23.987Z,1.57
2023-04-29T14:34:29.050Z,1.47
2023-04-29T14:37:32.682Z,1.80
2023-04-29T14:40:36.602Z,1.37
2023-04-29T14:43:41.733Z,0.93
2023-04-29T14:46:45.791Z,1.67
2023-04-29T14:49:51.567Z,1.40
2023-04-29T14:52:55.298Z,1.87
2023-04-29T14:55:58.940Z,2.10
2023-04-29T14:59:02.535Z,2.63
2023-04-29T15:02:06.201Z,3.10
2023-04-29T15:05:11.737Z,2.30
2023-04-29T15:08:15.305Z,2.63
2023-04-29T15:11:18.954Z,2.80
2023-04-29T15:14:22.486Z,2.70
2023-04-29T15:17:26.482Z,2.60
2023-04-29T15:20:32.678Z,2.20
2023-04-29T15:23:36.444Z,2.50
2023-04-29T15:26:40.202Z,2.50
2023-04-29T15:29:43.802Z,2.43
2023-04-29T15:32:47.621Z,2.10
2023-04-29T15:35:52.710Z,1.90
2023-04-29T15:38:56.511Z,1.97
2023-04-29T15:42:01.077Z,1.90
2023-04-29T15:45:05.083Z,2.03
2023-04-29T15:48:08.944Z,1.60
2023-04-29T15:51:15.185Z,2.27
2023-04-29T15:54:18.942Z,2.17
2023-04-29T15:57:22.656Z,2.47
2023-04-29T16:00:26.378Z,2.30
2023-04-29T16:03:30.030Z,2.53
2023-04-29T16:06:35.345Z,2.27
2023-04-29T16:09:38.979Z,2.30
2023-04-29T16:12:43.066Z,2.17
2023-04-29T16:15:46.799Z,2.17
2023-04-29T16:18:50.688Z,2.00
2023-04-29T16:21:56.285Z,2.23
2023-04-29T16:24:59.949Z,1.70
2023-04-29T16:28:03.774Z,1.80
2023-04-29T16:31:07.791Z,1.30
2023-04-29T16:34:11.757Z,1.67
2023-04-29T16:37:16.820Z,1.53
2023-04-29T16:40:20.803Z,1.63
2023-04-29T16:43:24.614Z,2.20
2023-04-29T16:46:28.438Z,1.93
2023-04-29T16:49:32.980Z,2.67
2023-04-29T16:52:38.003Z,2.57
2023-04-29T16:55:42.237Z,2.20
2023-04-29T16:58:45.891Z,2.30
2023-04-29T17:01:49.879Z,2.00
2023-04-29T17:04:54.086Z,1.73
2023-04-29T17:07:59.142Z,1.90
2023-04-29T17:11:06.381Z,2.50
2023-04-29T17:14:10.038Z,2.67
2023-04-29T17:17:13.994Z,2.20
2023-04-29T17:20:17.681Z,2.17
2023-04-29T17:23:22.674Z,2.13
2023-04-29T17:26:26.448Z,2.50
2023-04-29T17:29:30.239Z,2.27
2023-04-29T17:32:39.240Z,2.10
2023-04-29T17:35:43.204Z,2.70
2023-04-29T17:38:48.350Z,2.20
2023-04-29T17:41:52.091Z,2.77
2023-04-29T17:44:55.850Z,2.07
2023-04-29T17:47:59.601Z,2.50
2023-04-29T17:51:03.361Z,2.60
2023-04-29T17:54:10.471Z,2.77
2023-04-29T17:57:14.324Z,2.43
2023-04-29T18:00:18.526Z,2.47
2023-04-29T18:03:23.720Z,2.87
2023-04-29T18:06:28.463Z,2.73
2023-04-29T18:09:35.094Z,2.50
2023-04-29T18:12:38.759Z,3.37
2023-04-29T18:15:42.829Z,2.87
2023-04-29T18:18:46.936Z,2.50
2023-04-29T18:21:50.721Z,2.30
2023-04-29T18:24:57.951Z,2.70
2023-04-29T18:28:23.016Z,2.20
2023-04-29T18:31:28.300Z,2.13
2023-04-29T18:34:32.100Z,2.67
2023-04-29T18:37:35.956Z,2.80
2023-04-29T18:40:41.153Z,2.33
2023-04-29T18:43:44.853Z,2.23
2023-04-29T18:46:49.663Z,1.90
2023-04-29T18:49:53.833Z,1.97
2023-04-29T18:52:57.979Z,1.67
2023-04-29T18:56:03.486Z,1.97
2023-04-29T18:59:08.895Z,1.80
2023-04-29T19:02:12.575Z,2.17
2023-04-29T19:05:16.318Z,1.53
2023-04-29T19:08:19.968Z,2.23
2023-04-29T19:11:26.486Z,2.00
2023-04-29T19:14:30.513Z,1.67
2023-04-29T19:17:34.835Z,2.00
2023-04-29T19:20:38.479Z,2.10
2023-04-29T19:23:42.365Z,1.43
2023-04-29T19:26:47.416Z,1.80
2023-04-29T19:29:51.438Z,2.10
2023-04-29T19:32:55.090Z,1.60
2023-04-29T19:35:58.936Z,1.60
2023-04-29T19:39:04.541Z,2.00
2023-04-29T19:42:09.945Z,2.47
2023-04-29T19:45:19.333Z,1.80
2023-04-29T19:48:22.981Z,1.63
2023-04-29T19:51:26.846Z,2.33
2023-04-29T19:54:30.999Z,2.97
2023-04-29T19:57:36.531Z,2.13
2023-04-29T20:00:40.201Z,3.00
2023-04-29T20:03:44.034Z,2.40
2023-04-29T20:06:48.171Z,3.10
2023-04-29T20:09:52.124Z,2.30
2023-04-29T20:12:57.466Z,2.20
2023-04-29T20:16:01.535Z,2.43
2023-04-29T20:19:05.697Z,2.37
2023-04-29T20:22:09.452Z,1.83
2023-04-29T20:25:13.173Z,2.10
2023-04-29T20:28:18.274Z,1.93
2023-04-29T20:31:22.033Z,1.70
2023-04-29T20:34:26.481Z,2.07
2023-04-29T20:37:31.778Z,1.60
2023-04-29T20:40:36.137Z,2.10
2023-04-29T20:43:41.204Z,2.67
2023-04-29T20:46:46.112Z,1.47
2023-04-29T20:49:49.741Z,2.27
2023-04-29T20:52:53.749Z,2.30
2023-04-29T20:55:57.391Z,2.40
2023-04-29T20:59:03.053Z,2.63
2023-04-29T21:02:06.639Z,2.07
2023-04-29T21:05:11.213Z,2.33
2023-04-29T21:08:14.827Z,2.33
2023-04-29T21:11:18.567Z,3.80
2023-04-29T21:14:23.511Z,6.37
2023-04-29T21:17:27.118Z,6.23
2023-04-29T21:20:30.721Z,3.73
2023-04-29T21:23:34.361Z,2.60
2023-04-29T21:26:37.928Z,2.70
2023-04-29T21:29:42.926Z,2.63
2023-04-29T21:32:46.575Z,2.50
2023-04-29T21:35:51.603Z,2.53
2023-04-29T21:38:55.707Z,2.50
2023-04-29T21:42:01.153Z,2.53
2023-04-29T21:45:08.553Z,2.43
2023-04-29T21:48:17.622Z,2.40
2023-04-29T21:51:22.821Z,2.03
2023-04-29T21:54:26.528Z,2.30
2023-04-29T21:57:42.669Z,2.27
2023-04-29T22:00:58.408Z,2.73
2023-04-29T22:04:02.167Z,2.03
2023-04-29T22:07:05.823Z,2.10
2023-04-29T22:10:10.721Z,2.00
2023-04-29T22:13:14.540Z,2.57
2023-04-29T22:16:19.851Z,2.33
2023-04-29T22:19:23.715Z,2.40
2023-04-29T22:22:27.534Z,2.07
2023-04-29T22:25:31.398Z,2.67
2023-04-29T22:28:35.211Z,2.40
2023-04-29T22:31:40.225Z,1.90
2023-04-29T22:34:44.006Z,1.70
2023-04-29T22:37:48.133Z,2.07
2023-04-29T22:40:52.565Z,1.90
2023-04-29T22:43:57.661Z,2.63
2023-04-29T22:47:03.376Z,2.30
2023-04-29T22:50:08.738Z,2.33
2023-04-29T22:53:12.427Z,2.47
2023-04-29T22:56:15.979Z,3.40
2023-04-29T22:59:19.678Z,2.60
2023-04-29T23:02:28.986Z,2.27
2023-04-29T23:05:32.873Z,2.77
2023-04-29T23:08:36.452Z,2.50
2023-04-29T23:11:40.281Z,2.17
2023-04-29T23:14:43.950Z,2.60
2023-04-29T23:17:49.015Z,3.27
2023-04-29T23:20:53.075Z,2.70
2023-04-29T23:23:56.681Z,2.50
2023-04-29T23:27:00.278Z,2.73
2023-04-29T23:30:03.924Z,2.90
2023-04-29T23:33:09.156Z,2.47
2023-04-29T23:36:12.887Z,2.50
2023-04-29T23:39:16.645Z,3.13
2023-04-29T23:42:20.503Z,2.70
2023-04-29T23:45:24.152Z,2.83
2023-04-29T23:48:29.200Z,2.63
2023-04-29T23:51:33.100Z,2.60
2023-04-29T23:54:36.686Z,2.40
2023-04-29T23:57:40.337Z,2.77
